Time;durP1;ratioP1;P1;durP2;ratioP2;P2;SDS_P1;SDS_P2;PMS_P1;PMS_P2;Temp;Humidity;BMP_temperature;BMP_pressure;BME280_temperature;BME280_humidity;BME280_pressure;Samples;Min_cycle;Max_cycle;Signal;HPM_P1;HPM_P2
2022/02/10 00:04:43;;;;;;;21.97;16.93;;;10.50;99.90;;;;;;6179418;23;20169;-86
2022/02/10 00:16:10;;;;;;;26.17;17.13;;;10.20;99.90;;;;;;6179964;23;20237;-85
2022/02/10 00:21:44;;;;;;;24.60;17.60;;;10.00;99.90;;;;;;6179215;23;20179;-85
2022/02/10 00:36:09;;;;;;;23.27;17.57;;;9.50;99.90;;;;;;6058857;23;20185;-84
2022/02/10 00:38:43;;;;;;;22.73;17.73;;;9.40;99.90;;;;;;6059142;23;20207;-84
2022/02/10 00:41:20;;;;;;;30.50;18.33;;;9.30;99.90;;;;;;6059646;23;20180;-85
2022/02/10 00:43:51;;;;;;;25.40;18.20;;;9.20;99.90;;;;;;6060031;23;20246;-84
2022/02/10 00:46:31;;;;;;;27.93;18.70;;;9.10;99.90;;;;;;6060362;23;20171;-85
2022/02/10 00:49:08;;;;;;;24.53;17.00;;;9.00;99.90;;;;;;6054964;23;20178;-84
2022/02/10 00:51:42;;;;;;;27.87;18.33;;;9.00;99.90;;;;;;6059982;23;20217;-84
2022/02/10 00:54:18;;;;;;;24.47;17.80;;;8.90;99.90;;;;;;6059904;23;20194;-85
2022/02/10 00:56:52;;;;;;;25.80;18.37;;;8.80;99.90;;;;;;6059160;23;20178;-84
2022/02/10 00:59:45;;;;;;;26.37;18.03;;;8.70;99.90;;;;;;6059881;23;20185;-85
2022/02/10 01:06:58;;;;;;;27.43;18.40;;;8.60;99.90;;;;;;6059029;23;20185;-85
2022/02/10 01:11:46;;;;;;;27.83;17.57;;;8.40;99.90;;;;;;6161607;23;20214;-85
2022/02/10 01:24:28;;;;;;;28.63;18.63;;;8.30;99.90;;;;;;6177046;23;20184;-84
2022/02/10 01:31:54;;;;;;;34.20;24.00;;;8.00;99.90;;;;;;6176826;23;20708;-84
2022/02/10 01:34:28;;;;;;;41.77;26.30;;;7.90;99.90;;;;;;6151876;23;20264;-84
2022/02/10 01:37:05;;;;;;;36.53;25.37;;;7.90;99.90;;;;;;6177682;23;20172;-84
2022/02/10 01:39:49;;;;;;;36.70;26.63;;;7.90;99.90;;;;;;6178465;23;20175;-85
2022/02/10 02:04:59;;;;;;;39.80;26.13;;;7.30;99.90;;;;;;6177598;23;20183;-84
2022/02/10 02:07:40;;;;;;;43.13;26.77;;;7.30;99.90;;;;;;6177839;23;20183;-84
2022/02/10 02:10:30;;;;;;;37.87;27.17;;;7.30;99.90;;;;;;6178497;23;20200;-86
2022/02/10 02:13:05;;;;;;;42.50;27.27;;;7.40;99.90;;;;;;6178241;23;20178;-84
2022/02/10 02:15:32;;;;;;;37.27;26.50;;;7.30;99.90;;;;;;6178646;23;20167;-83
2022/02/10 02:18:04;;;;;;;38.00;27.03;;;7.30;99.90;;;;;;6177312;23;20180;-83
2022/02/10 02:20:51;;;;;;;41.07;28.30;;;7.30;99.90;;;;;;6178764;23;20164;-85
2022/02/10 02:23:57;;;;;;;41.93;27.10;;;7.30;99.90;;;;;;6178882;23;20199;-84
2022/02/10 02:26:27;;;;;;;44.47;27.43;;;7.40;99.90;;;;;;6143209;23;20231;-84
2022/02/10 02:29:01;;;;;;;45.67;29.47;;;7.20;99.90;;;;;;6177737;23;20195;-84
2022/02/10 02:31:51;;;;;;;42.20;27.87;;;7.30;99.90;;;;;;6178032;23;20208;-84
2022/02/10 03:09:41;;;;;;;51.13;33.17;;;7.00;99.90;;;;;;6175010;23;20176;-84
2022/02/10 03:12:23;;;;;;;52.00;33.30;;;6.90;99.90;;;;;;6178234;23;20219;-85
2022/02/10 03:15:16;;;;;;;60.00;35.67;;;6.90;99.90;;;;;;6177138;23;20176;-84
2022/02/10 03:18:09;;;;;;;58.73;34.77;;;7.00;99.90;;;;;;6177263;23;20172;-85
2022/02/10 03:20:49;;;;;;;56.63;33.80;;;7.00;99.90;;;;;;6177158;23;20168;-84
2022/02/10 04:11:57;;;;;;;47.17;33.53;;;7.90;99.90;;;;;;6155453;23;20211;-84
2022/02/10 04:14:38;;;;;;;48.60;33.13;;;8.10;99.90;;;;;;6177516;23;20176;-84
2022/02/10 04:17:27;;;;;;;48.10;33.10;;;8.10;99.90;;;;;;6177557;23;20198;-85
2022/02/10 04:22:59;;;;;;;54.07;33.30;;;8.00;99.90;;;;;;6171842;23;20180;-84
2022/02/10 04:25:43;;;;;;;52.87;33.17;;;8.00;99.90;;;;;;6178469;23;20200;-84
2022/02/10 04:28:28;;;;;;;50.00;33.30;;;8.10;99.90;;;;;;6178968;23;20164;-85
2022/02/10 04:31:29;;;;;;;45.53;31.47;;;7.90;99.90;;;;;;6178060;23;20235;-85
2022/02/10 04:43:15;;;;;;;50.50;32.53;;;8.00;99.90;;;;;;6127335;23;20180;-85
2022/02/10 04:57:57;;;;;;;44.13;30.67;;;8.10;99.90;;;;;;6174388;23;20172;-85
2022/02/10 05:00:57;;;;;;;50.63;30.53;;;8.10;99.90;;;;;;6178155;23;20180;-84
2022/02/10 05:06:58;;;;;;;44.80;30.53;;;7.90;99.90;;;;;;6174711;23;20183;-84
2022/02/10 05:32:46;;;;;;;34.57;26.70;;;8.00;99.90;;;;;;6179250;23;20221;-84
2022/02/10 05:35:45;;;;;;;33.87;25.63;;;8.10;99.90;;;;;;6178073;23;20183;-84
2022/02/10 05:38:16;;;;;;;39.73;27.63;;;8.10;99.90;;;;;;6181833;23;20232;-84
2022/02/10 05:43:48;;;;;;;36.17;25.63;;;7.90;99.90;;;;;;6112301;23;20655;-85
2022/02/10 05:52:52;;;;;;;35.83;26.83;;;7.80;99.90;;;;;;6177193;23;20227;-84
2022/02/10 05:58:27;;;;;;;39.43;26.60;;;7.80;99.90;;;;;;6146424;23;20183;-84
2022/02/10 06:53:11;;;;;;;36.67;24.43;;;8.00;99.90;;;;;;6164362;23;20180;-83
2022/02/10 07:05:10;;;;;;;35.83;22.77;;;7.60;99.90;;;;;;6176666;23;20168;-83
2022/02/10 07:08:31;;;;;;;37.30;24.17;;;7.70;99.90;;;;;;6176036;23;20179;-85
2022/02/10 08:04:28;;;;;;;47.40;26.67;;;7.70;99.90;;;;;;6065264;23;20183;-84
2022/02/10 10:02:44;;;;;;;16.63;12.27;;;8.70;99.90;;;;;;6233422;23;20178;-82
2022/02/10 10:06:11;;;;;;;12.57;10.13;;;8.90;99.90;;;;;;6235858;23;20185;-85
2022/02/10 11:43:31;;;;;;;11.00;8.87;;;8.90;99.90;;;;;;6239363;23;20178;-85
2022/02/10 13:49:25;;;;;;;14.73;12.27;;;9.60;99.90;;;;;;6207269;23;20191;-85
2022/02/10 14:14:43;;;;;;;16.73;11.07;;;9.30;99.90;;;;;;6115867;23;20229;-83
2022/02/10 14:17:32;;;;;;;15.53;11.03;;;9.00;99.90;;;;;;6115765;23;20235;-84
2022/02/10 14:20:10;;;;;;;16.40;11.30;;;8.80;99.90;;;;;;6159812;23;20179;-84
2022/02/10 14:23:05;;;;;;;14.23;11.97;;;8.80;99.90;;;;;;6175877;23;20227;-85
2022/02/10 14:25:41;;;;;;;15.87;11.93;;;8.80;99.90;;;;;;6176857;23;20183;-85
2022/02/10 14:28:31;;;;;;;14.10;11.53;;;8.90;99.90;;;;;;6175319;23;20513;-85
2022/02/10 14:31:09;;;;;;;17.10;12.87;;;8.80;99.90;;;;;;6175852;23;20172;-83
2022/02/10 14:33:42;;;;;;;15.83;12.37;;;8.80;99.90;;;;;;6174249;23;20203;-85
2022/02/10 14:36:29;;;;;;;16.27;12.77;;;8.80;99.90;;;;;;6177713;23;20186;-85
2022/02/10 14:39:51;;;;;;;19.83;13.33;;;8.90;99.90;;;;;;6177514;23;20172;-85
2022/02/10 14:42:53;;;;;;;15.63;13.17;;;8.90;99.90;;;;;;6150950;23;20183;-84
2022/02/10 15:11:17;;;;;;;4.80;1.83;;;7.80;99.90;;;;;;6225547;23;20186;-80
2022/02/10 15:17:12;;;;;;;5.17;2.07;;;7.80;99.90;;;;;;6198928;23;20488;-80
2022/02/10 15:54:04;;;;;;;11.13;5.73;;;7.80;99.90;;;;;;5104976;28;20212;-89
2022/02/10 15:56:59;;;;;;;10.93;5.33;;;7.70;99.90;;;;;;5110991;28;20574;-86
2022/02/10 16:18:53;;;;;;;11.33;4.60;;;7.40;99.90;;;;;;5109619;28;20313;-77
2022/02/10 16:21:31;;;;;;;10.27;5.03;;;7.40;99.90;;;;;;5110101;28;20200;-83
2022/02/10 16:24:03;;;;;;;9.03;3.97;;;7.30;99.90;;;;;;5110692;28;20200;-77
2022/02/10 16:26:41;;;;;;;8.80;3.67;;;7.30;99.90;;;;;;5110587;28;20296;-88
2022/02/10 16:29:10;;;;;;;8.67;3.53;;;7.30;99.90;;;;;;5110436;28;20212;-76
2022/02/10 16:31:37;;;;;;;9.57;3.73;;;7.40;99.90;;;;;;5110654;28;20291;-79
2022/02/10 16:34:06;;;;;;;9.83;3.47;;;7.30;99.90;;;;;;5110406;28;20273;-81
2022/02/10 16:36:33;;;;;;;12.93;3.87;;;7.20;99.90;;;;;;5109880;28;20597;-77
2022/02/10 16:39:01;;;;;;;5.23;3.13;;;7.10;99.90;;;;;;5110541;28;20214;-85
2022/02/10 16:41:28;;;;;;;6.93;2.93;;;7.10;99.90;;;;;;5110036;28;20197;-81
2022/02/10 16:43:55;;;;;;;8.03;2.63;;;7.10;99.90;;;;;;5109944;28;20289;-77
2022/02/10 16:46:23;;;;;;;5.07;2.13;;;7.00;99.90;;;;;;5109711;28;20196;-81
2022/02/10 16:48:50;;;;;;;5.63;1.80;;;7.00;99.90;;;;;;5109630;28;20224;-77
2022/02/10 16:51:18;;;;;;;4.07;1.53;;;6.90;99.90;;;;;;5109457;28;20207;-78
2022/02/10 16:53:51;;;;;;;6.63;1.93;;;6.90;99.90;;;;;;5110264;28;20227;-79
2022/02/10 16:56:23;;;;;;;5.97;2.00;;;6.90;99.90;;;;;;5109954;28;20211;-83
2022/02/10 16:59:03;;;;;;;4.37;1.43;;;6.90;99.90;;;;;;5109920;28;20199;-81
2022/02/10 17:20:45;;;;;;;4.50;2.57;;;6.90;99.90;;;;;;5091449;28;20197;-87
2022/02/10 17:26:12;;;;;;;9.73;2.23;;;6.80;99.90;;;;;;5087086;28;20200;-85
2022/02/10 17:28:44;;;;;;;6.60;1.77;;;6.90;99.90;;;;;;5090563;28;20201;-88
2022/02/10 17:31:39;;;;;;;4.07;1.20;;;6.70;99.90;;;;;;5096419;28;20194;-83
2022/02/10 17:37:13;;;;;;;4.10;0.80;;;6.40;99.90;;;;;;5094934;28;20197;-81
2022/02/10 17:45:23;;;;;;;1.73;1.20;;;6.20;99.90;;;;;;5085782;28;20205;-81
2022/02/10 17:53:25;;;;;;;1.23;0.90;;;5.90;99.90;;;;;;5093031;28;20200;-81
2022/02/10 17:55:54;;;;;;;1.10;0.80;;;5.80;99.90;;;;;;5088580;28;20240;-89
2022/02/10 17:58:23;;;;;;;4.30;0.90;;;5.70;99.90;;;;;;5080157;28;20611;-87
2022/02/10 18:00:52;;;;;;;2.00;0.50;;;5.50;99.90;;;;;;5095398;28;20272;-81
2022/02/10 18:03:21;;;;;;;1.10;0.60;;;5.50;99.90;;;;;;5100272;28;20437;-81
2022/02/10 18:06:13;;;;;;;1.07;0.77;;;5.60;99.90;;;;;;5098399;28;20193;-83
2022/02/10 18:08:45;;;;;;;3.47;1.10;;;5.60;99.90;;;;;;5095490;28;20429;-84
2022/02/10 18:13:57;;;;;;;2.27;0.80;;;5.50;99.90;;;;;;5091974;28;20208;-83
2022/02/10 18:16:31;;;;;;;3.17;0.80;;;5.60;99.90;;;;;;5094397;28;20205;-81
2022/02/10 18:19:04;;;;;;;2.90;1.30;;;5.60;99.90;;;;;;5092942;28;20430;-82
2022/02/10 18:27:35;;;;;;;1.33;1.00;;;5.70;99.90;;;;;;5132261;27;20252;-79
2022/02/10 19:06:44;;;;;;;2.33;1.47;;;5.90;99.90;;;;;;5132494;27;20199;-90
2022/02/10 19:09:22;;;;;;;3.07;1.60;;;6.00;99.90;;;;;;5112466;28;20196;-86
2022/02/10 19:11:58;;;;;;;1.70;1.60;;;6.10;99.90;;;;;;5123133;28;21251;-85
2022/02/10 19:14:36;;;;;;;4.83;2.03;;;6.20;99.90;;;;;;5130903;27;20212;-83
2022/02/10 19:17:06;;;;;;;2.90;1.80;;;6.10;99.90;;;;;;5130821;27;20247;-83
2022/02/10 19:19:40;;;;;;;2.97;1.87;;;6.10;99.90;;;;;;5132129;27;20199;-85
2022/02/10 19:22:07;;;;;;;3.60;2.10;;;6.20;99.90;;;;;;5130138;28;20210;-83
2022/02/10 19:24:37;;;;;;;4.53;2.10;;;6.10;99.90;;;;;;5132294;27;20234;-84
2022/02/10 19:27:08;;;;;;;4.03;2.30;;;6.10;99.90;;;;;;5132208;27;20617;-83
2022/02/10 19:29:38;;;;;;;5.00;2.73;;;6.10;99.90;;;;;;5131953;27;20192;-82
2022/02/10 19:32:06;;;;;;;9.05;4.22;;;6.00;99.90;;;;;;5130769;27;20772;-81
2022/02/10 19:34:35;;;;;;;8.63;3.93;;;6.00;99.90;;;;;;5126037;27;20211;-82
2022/02/10 19:37:03;;;;;;;4.53;3.10;;;6.00;99.90;;;;;;5117699;28;20263;-83
2022/02/10 19:39:35;;;;;;;6.00;3.07;;;6.20;99.90;;;;;;5119190;28;20193;-84
2022/02/10 19:42:01;;;;;;;6.13;2.57;;;6.10;99.90;;;;;;5118596;28;20231;-85
2022/02/10 19:44:33;;;;;;;3.73;2.60;;;6.20;99.90;;;;;;5118242;28;20219;-89
2022/02/10 19:47:03;;;;;;;3.20;2.07;;;6.00;99.90;;;;;;5117762;28;20234;-86
2022/02/10 19:49:32;;;;;;;2.63;2.20;;;6.00;99.90;;;;;;5117410;28;20213;-86
2022/02/10 19:52:02;;;;;;;4.70;2.37;;;5.90;99.90;;;;;;5117466;28;20201;-89
2022/02/10 19:54:37;;;;;;;4.07;2.70;;;5.90;99.90;;;;;;5118509;28;20375;-84
2022/02/10 19:57:09;;;;;;;2.97;1.97;;;5.80;99.90;;;;;;5117489;28;20236;-84
2022/02/10 19:59:36;;;;;;;2.90;2.13;;;5.80;99.90;;;;;;5118434;28;20185;-81
2022/02/10 20:02:07;;;;;;;5.43;2.10;;;5.70;99.90;;;;;;5117012;28;20211;-82
2022/02/10 20:04:36;;;;;;;3.33;2.30;;;5.70;99.90;;;;;;5116924;28;20220;-83
2022/02/10 20:07:07;;;;;;;3.17;2.37;;;5.70;99.90;;;;;;5116974;28;20203;-83
2022/02/10 20:09:40;;;;;;;3.83;2.60;;;5.70;99.90;;;;;;5117177;28;20224;-83
2022/02/10 20:12:08;;;;;;;3.03;1.80;;;5.80;99.90;;;;;;5116257;28;20220;-86
2022/02/10 20:14:34;;;;;;;2.50;2.10;;;5.80;99.90;;;;;;5116546;28;20196;-85
2022/02/10 20:17:02;;;;;;;3.83;2.90;;;5.80;99.90;;;;;;5117235;28;20185;-84
2022/02/10 20:19:30;;;;;;;4.73;2.30;;;5.80;99.90;;;;;;5117706;28;20200;-81
2022/02/10 20:22:05;;;;;;;4.70;2.60;;;5.70;99.90;;;;;;5117005;28;20220;-84
2022/02/10 20:24:33;;;;;;;4.33;2.20;;;5.70;99.90;;;;;;5117127;28;20224;-83
2022/02/10 20:27:01;;;;;;;3.57;2.20;;;5.60;99.90;;;;;;5117350;28;20208;-84
2022/02/10 20:29:29;;;;;;;3.10;2.80;;;5.60;99.90;;;;;;5116819;28;20184;-82
2022/02/10 20:31:58;;;;;;;5.93;2.70;;;5.60;99.90;;;;;;5115830;28;20201;-84
2022/02/10 20:34:26;;;;;;;4.10;2.27;;;5.60;99.90;;;;;;5108833;28;20215;-87
2022/02/10 20:36:56;;;;;;;3.90;2.10;;;5.40;99.90;;;;;;5113834;28;20647;-85
2022/02/10 20:39:26;;;;;;;3.17;2.30;;;5.40;99.90;;;;;;5112513;28;20204;-82
2022/02/10 20:42:01;;;;;;;2.50;2.17;;;5.50;99.90;;;;;;5116188;28;20205;-83
2022/02/10 20:44:30;;;;;;;2.83;1.93;;;5.50;99.90;;;;;;5116389;28;20222;-88
2022/02/10 20:46:59;;;;;;;3.33;2.50;;;5.40;99.90;;;;;;5113778;28;20408;-90
2022/02/10 20:49:32;;;;;;;2.30;1.93;;;5.50;99.90;;;;;;5115010;28;20212;-91
2022/02/10 20:52:07;;;;;;;3.13;2.00;;;5.40;99.90;;;;;;5116024;28;20562;-87
2022/02/10 20:54:34;;;;;;;3.20;2.00;;;5.30;99.90;;;;;;5115616;28;20253;-82
2022/02/10 20:57:03;;;;;;;1.93;1.60;;;5.30;99.90;;;;;;5115503;28;20691;-86
2022/02/10 20:59:39;;;;;;;2.33;1.73;;;5.30;99.90;;;;;;5115807;28;20246;-85
2022/02/10 21:02:13;;;;;;;1.70;1.60;;;5.30;99.90;;;;;;5115654;28;20200;-87
2022/02/10 21:04:49;;;;;;;4.27;1.97;;;5.30;99.90;;;;;;5116102;28;20390;-82
2022/02/10 21:07:25;;;;;;;4.07;1.40;;;5.30;99.90;;;;;;5115886;27;20628;-82
2022/02/10 21:09:57;;;;;;;1.80;1.30;;;5.40;99.90;;;;;;5116254;28;20600;-82
2022/02/10 21:12:35;;;;;;;3.07;1.40;;;5.30;99.90;;;;;;5116625;28;20225;-87
2022/02/10 21:15:25;;;;;;;3.27;1.70;;;5.30;99.90;;;;;;5115740;28;20197;-90
2022/02/10 21:17:59;;;;;;;2.20;1.37;;;5.30;99.90;;;;;;5115632;28;20200;-84
2022/02/10 21:20:29;;;;;;;5.17;1.30;;;5.20;99.90;;;;;;5116128;28;20200;-82
2022/02/10 21:23:07;;;;;;;2.58;1.42;;;5.20;99.90;;;;;;5116640;28;20417;-82
2022/02/10 21:25:39;;;;;;;2.00;1.80;;;5.20;99.90;;;;;;5114865;28;20601;-91
2022/02/10 21:28:16;;;;;;;2.00;1.60;;;5.30;99.90;;;;;;5115131;28;20197;-80
2022/02/10 21:30:46;;;;;;;1.70;1.60;;;5.20;99.90;;;;;;5109633;28;20212;-81
2022/02/10 21:33:21;;;;;;;1.90;1.73;;;5.30;99.90;;;;;;5115954;28;20193;-80
2022/02/10 21:38:45;;;;;;;2.60;2.40;;;5.10;99.90;;;;;;5108557;28;20396;-82
2022/02/10 21:41:42;;;;;;;4.43;2.57;;;5.00;99.90;;;;;;5114465;28;20249;-83
2022/02/10 21:55:31;;;;;;;3.43;2.60;;;4.80;99.90;;;;;;5114496;28;20192;-87
2022/02/10 22:09:32;;;;;;;5.53;3.40;;;4.80;99.90;;;;;;5151667;27;20431;-85
2022/02/10 22:12:11;;;;;;;3.20;2.90;;;4.90;99.90;;;;;;5151918;27;20215;-85
2022/02/10 22:18:18;;;;;;;4.20;3.10;;;4.70;99.90;;;;;;5089151;28;20805;-85
2022/02/10 22:20:48;;;;;;;8.73;3.77;;;4.80;99.90;;;;;;5092100;28;20525;-85
2022/02/10 22:23:20;;;;;;;5.70;3.43;;;4.80;99.90;;;;;;5138199;27;20574;-85
2022/02/10 22:25:48;;;;;;;4.20;3.23;;;4.90;99.90;;;;;;5156932;27;20824;-86
2022/02/10 22:28:29;;;;;;;5.53;3.67;;;4.80;99.90;;;;;;5156914;27;20445;-86
2022/02/10 22:31:09;;;;;;;5.77;3.20;;;4.70;99.90;;;;;;5156186;27;20195;-84
2022/02/10 22:33:50;;;;;;;4.13;3.40;;;4.70;99.90;;;;;;5152587;27;20482;-81
2022/02/10 22:36:20;;;;;;;5.67;3.83;;;4.60;99.90;;;;;;5151435;27;20446;-82
2022/02/10 22:38:49;;;;;;;4.13;3.50;;;4.60;99.90;;;;;;5151783;27;20439;-80
2022/02/10 22:41:21;;;;;;;5.00;3.40;;;4.60;99.90;;;;;;5152069;27;20447;-84
2022/02/10 22:43:52;;;;;;;5.57;3.57;;;4.60;99.90;;;;;;5151380;27;20848;-85
2022/02/10 22:46:20;;;;;;;5.73;4.23;;;4.60;99.90;;;;;;5151814;27;20438;-80
2022/02/10 22:48:49;;;;;;;4.40;3.73;;;4.50;99.90;;;;;;5151752;27;20439;-81
2022/02/10 22:51:21;;;;;;;8.80;4.07;;;4.50;99.90;;;;;;5151067;27;20830;-84
2022/02/10 22:53:48;;;;;;;3.67;3.30;;;4.60;99.90;;;;;;5151541;27;20458;-84
2022/02/10 22:56:19;;;;;;;5.17;4.53;;;4.60;99.90;;;;;;5151449;27;20439;-81
2022/02/10 22:58:48;;;;;;;6.67;4.17;;;4.60;99.90;;;;;;5150939;27;20450;-81
2022/02/10 23:01:16;;;;;;;7.60;3.97;;;4.60;99.90;;;;;;5151065;27;20427;-81
2022/02/10 23:03:44;;;;;;;7.27;4.03;;;4.50;99.90;;;;;;5150649;27;20499;-83
2022/02/10 23:06:13;;;;;;;7.10;4.30;;;4.60;99.90;;;;;;5151022;27;20461;-80
2022/02/10 23:08:43;;;;;;;6.10;3.83;;;4.60;99.90;;;;;;5151030;27;20952;-80
2022/02/10 23:11:13;;;;;;;10.17;4.10;;;4.60;99.90;;;;;;5151252;27;20470;-82
2022/02/10 23:13:45;;;;;;;10.43;4.73;;;4.60;99.90;;;;;;5146162;27;20547;-81
2022/02/10 23:16:14;;;;;;;7.67;3.93;;;4.70;99.90;;;;;;5137399;27;20777;-80
2022/02/10 23:18:44;;;;;;;6.13;4.13;;;4.60;99.90;;;;;;5137612;27;20475;-81
2022/02/10 23:21:15;;;;;;;8.70;4.03;;;4.60;99.90;;;;;;5137049;27;20447;-80
2022/02/10 23:23:46;;;;;;;6.50;4.07;;;4.60;99.90;;;;;;5137433;27;20515;-82
2022/02/10 23:26:19;;;;;;;4.23;3.63;;;4.60;99.90;;;;;;5137394;27;20485;-82
2022/02/10 23:28:50;;;;;;;8.37;3.60;;;4.60;99.90;;;;;;5136877;27;20451;-84
2022/02/10 23:31:22;;;;;;;6.30;3.87;;;4.60;99.90;;;;;;5136787;27;20188;-81
2022/02/10 23:33:54;;;;;;;6.73;4.03;;;4.70;99.90;;;;;;5137332;27;20279;-82
2022/02/10 23:36:41;;;;;;;7.80;4.33;;;4.70;99.90;;;;;;5136991;27;20238;-82
2022/02/10 23:39:17;;;;;;;9.53;3.93;;;4.70;99.90;;;;;;5137271;27;20478;-83
2022/02/10 23:42:00;;;;;;;11.37;3.80;;;4.70;99.90;;;;;;5136869;27;20522;-81
2022/02/10 23:44:36;;;;;;;7.17;3.80;;;4.70;99.90;;;;;;5136739;27;20443;-80
2022/02/10 23:47:05;;;;;;;10.07;3.87;;;4.70;99.90;;;;;;5136626;27;20447;-83
2022/02/10 23:49:35;;;;;;;22.37;3.97;;;4.70;99.90;;;;;;5136451;27;20658;-83
2022/02/10 23:52:06;;;;;;;8.53;4.10;;;4.60;99.90;;;;;;5136561;27;20533;-80
2022/02/10 23:54:39;;;;;;;9.90;3.83;;;4.50;99.90;;;;;;5136659;27;20678;-80
2022/02/10 23:57:13;;;;;;;9.30;4.60;;;4.60;99.90;;;;;;5135088;27;20419;-80
